AirNav   Bose Proflight Series 2 Wireless Aviation Headset
 
 1282 users online  

PS78 Pittsburgh City Center Heliport
Pittsburgh, Pennsylvania, USA

GOING TO PITTSBURGH?


FAA INFORMATION EFFECTIVE 07 NOVEMBER 2019

Location

FAA Identifier: PS78
Lat/Long: 40-26-32.2480N 079-57-36.1870W
40-26.537467N 079-57.603117W
40.4422911,-79.9600519
(estimated)
Elevation: 1124 ft. / 343 m (estimated)
Variation: 09W (2000)
Time zone: UTC -5 (UTC -4 during Daylight Saving Time)
Zip code: 15213

Heliport Operations

Heliport use: Private use, MEDICAL USE.
Activation date: 04/1986
Control tower: no
ARTCC: CLEVELAND CENTER
FSS: ALTOONA FLIGHT SERVICE STATION
NOTAMs facility: FDC (NOTAM-D service not available)
Attendance: CONTINUOUS
FOR ATTENDANT CALL 412-692-5000.
Wind indicator: lighted
Segmented circle: no
Lights: FOR PERIMETER LGTS CALL 412-692-5191.
Beacon: white-green-yellow (heliport)
FOR ROTG BCN CALL 412-692-5191.
Landing fee: yes

Heliport Communications

PITTSBURGH APPROACH: 126.725
PITTSBURGH DEPARTURE: 126.725
WX AWOS-A at 42PN (2.2 nm NW): PHONE 412-442-2213
WX ASOS at AGC (5 nm S): PHONE 412-466-8968
WX ASOS at PIT (13 nm W): PHONE 412-472-0145
WX AWOS-3 at FWQ (15 nm SE): 118.475 (724-379-5815)
  • APCH/DEP SVC PRVDD BY PITSBURGH INTL ATCT (PIT) 126.725/291.650.

Nearby radio navigation aids

VOR radial/distance  VOR name  Freq  Var
AGCr030/10.5ALLEGHENY VOR/DME110.0009W
EWCr161/25.7ELLWOOD CITY VOR/DME115.8008W
HLGr076/29.9WHEELING VOR/DME112.2007W
IHDr322/39.4INDIAN HEAD VORTAC108.2006W

Heliport Services

Runway Information

Helipad H1

Dimensions: 96 x 48 ft. / 29 x 15 m
Surface: concrete, in fair condition
Runway edge lights: PERI
Latitude: 40-26.537467N
Longitude: 079-57.603117W
Elevation: 1124.0 ft.
Traffic pattern: leftleft
Markings: none, in fair condition

Heliport Ownership and Management from official FAA records

Ownership: Privately-owned
Owner: UPMC PRESBYTERIAN
200 LOTHROP STREET
PITTSBURGH, PA 15213
Phone 412-647-5618
Manager: DON CHARLEY
200 LOTHROP STREET
PITTSBURGH, PA 15213
Phone 412-647-5618
412-692-5000.

Additional Remarks

FOR CD CTC PITTSBURGH APCH AT 412-472-5591
A52-H1 ELEVATOR TOWER & PENTHOUSE - EAST OF LANDING AREA; HOSPITAL TOWER & FLAGPOLE - NORTH OF LANDING AREA.

Instrument Procedures

There are no published instrument procedures at PS78.

Some nearby airports with instrument procedures:

KAGC - Allegheny County Airport (5 nm S)
G05 - Finleyville Airpark (12 nm S)
KPIT - Pittsburgh International Airport (13 nm W)
KFWQ - Rostraver Airport (15 nm SE)
KBTP - Pittsburgh/Butler Regional Airport (20 nm N)
 
Loc | Ops | Rwys | IFR | FBO | Links
Com | Nav | Svcs | Stats | Notes
Area around PS78 (Pittsburgh City Center Heliport)
 
Road maps at: MapQuest Bing Google
 
Aerial photo
No photo
 
Sectional chart

 
Airport distance calculator
Flying to Pittsburgh City Center Heliport? Find the distance to fly.

From to PS78

Sunrise and sunset
Times for 15-Nov-2019
 Local
(UTC-5)
 Zulu
(UTC)
Morning civil twilight06:3811:38
Sunrise07:0712:07
Sunset17:0222:02
Evening civil twilight17:3122:31

Current date and time
Zulu (UTC)  15-Nov-2019 20:12:24
Local (UTC-5)  15-Nov-2019 15:12:24
 
METAR
KAGC 
6nm S 
151953Z 27007KT 10SM CLR 06/M04 A3024 RMK AO2 SLP256 T00611039
KPIT 
14nm W 
151951Z 28006KT 10SM FEW030 06/M04 A3026 RMK AO2 SLP265 T00611039
KP53 
15nm SE 
151956Z AUTO 36016KT M03/M07 A3038 RMK AO1 PK WND 01026/1914 SLP296 T10281072
KBTP 
19nm N 
151956Z AUTO 24007KT 10SM CLR 03/M03 A3027 RMK AO2 SLP268 T00331028
TAF
KAGC 
6nm S 
151720Z 1518/1618 28005KT P6SM SKC FM160100 33003KT P6SM SCT070 FM160200 36006KT P6SM OVC030 FM160700 01003KT P6SM SCT060 FM161200 04004KT P6SM SCT180
KPIT 
14nm W 
151720Z 1518/1624 28005KT P6SM SCT250 FM152300 33004KT P6SM SCT180 FM160200 35004KT P6SM BKN025 FM160600 01004KT P6SM BKN060 FM161200 04005KT P6SM SCT200
NOTAMs
Click for the latest NOTAMs
NOTAMs are issued by the DoD/FAA and will open in a separate window not controlled by AirNav.

 

 
 

Would you like to see your business listed on this page?

 If your business provides an interesting product or service to pilots, flight crews, aircraft, or users of the Pittsburgh City Center Heliport, you should consider listing it here.  To start the listing process, click on the button below
 
Add a business
 

Other Pages about Pittsburgh City Center Heliport

Update a link
 
Copyright © AirNav, LLC. All rights reserved. Privacy Policy  Contact